This is the latest recevied weather packets stored in our database for station/object KC9DRE. If no packets are shown the sender has not sent any weather packets the latest 10 day(s).
| Time | Temp. | Humidity | Pressure | Rain* | Wind** | Luminosity | Snow |
|---|---|---|---|---|---|---|---|
| 1788031249 | 31.67° C | 47% | 1020.8 hPa | 0 mm | - | 236 W/m² | - |
| 1788030949 | 31.67° C | 47% | 1020.7 hPa | 0 mm | - | 685 W/m² | - |
| 1788030648 | 31.67° C | 46% | 1020.9 hPa | 0 mm | - | 226 W/m² | - |
| 1788030343 | 31.67° C | 44% | 1020.8 hPa | 0 mm | - | 305 W/m² | - |
| 1788030040 | 31.67° C | 44% | 1020.9 hPa | 0 mm | - | 777 W/m² | - |
| 1788029739 | 31.67° C | 44% | 1020.9 hPa | 0 mm | - | 748 W/m² | - |
| 1788029435 | 30.56° C | 51% | 1021.1 hPa | 0 mm | - | 756 W/m² | - |
| 1788029134 | 30.56° C | 55% | 1021.1 hPa | 0 mm | - | 477 W/m² | - |
| 1788028833 | 31.11° C | 47% | 1021.1 hPa | 0 mm | - | 242 W/m² | - |
| 1788028528 | 31.67° C | 44% | 1021.3 hPa | 0 mm | - | 231 W/m² | - |
| 1788028224 | 32.22° C | 46% | 1021.4 hPa | 0 mm | - | 257 W/m² | - |
| 1788027920 | 32.22° C | 45% | 1021.3 hPa | 0 mm | - | 279 W/m² | - |
| 1788027614 | 32.22° C | 44% | 1021.5 hPa | 0 mm | - | 761 W/m² | - |
| 1788027314 | 31.11° C | 45% | 1021.6 hPa | 0 mm | - | 919 W/m² | - |
| 1788027008 | 30° C | 53% | 1021.4 hPa | 0 mm | - | 933 W/m² | - |
| 1788026708 | 30° C | 50% | 1021.6 hPa | 0 mm | - | 279 W/m² | - |
| 1788026099 | 30° C | 49% | 1021.7 hPa | 0 mm | - | 277 W/m² | - |
| 1788025796 | 31.11° C | 49% | 1021.5 hPa | 0 mm | - | 689 W/m² | - |
| 1788025491 | 31.67° C | 51% | 1021.8 hPa | 0 mm | - | 254 W/m² | - |
| 1788025186 | 31.11° C | 52% | 1021.7 hPa | 0 mm | - | 679 W/m² | - |
| 1788024881 | 31.11° C | 54% | 1021.9 hPa | 0 mm | - | 843 W/m² | - |
| 1788024577 | 31.11° C | 47% | 1021.8 hPa | 0 mm | - | 838 W/m² | - |
| 1788024276 | 31.11° C | 47% | 1021.9 hPa | 0 mm | - | 833 W/m² | - |
| 1788023972 | 30.56° C | 51% | 1022 hPa | 0 mm | - | 835 W/m² | - |
| 1788023667 | 30.56° C | 49% | 1022.2 hPa | 0 mm | - | 825 W/m² | - |
* Rain latest hour (hover to see other rain measurements)
** Current wind speed in m/s (hover to see current wind gust speed)